x

Cal Poly Pier, Ca (cpxc1) Weather Station

7:56pm - Sat 13th Feb 2016 All times are PST. -8 hours from GMT.

  • Wind
    5mph, 6mph gusts
  • Air Temp 66°f
  • Sea Pressure 1022mb
  • Cal Poly Pier, Ca
  • Cal Poly Pier, Ca

More Historic Weather Station data

Upgrade to MSW Pro to gain access to the past 30 days of data for over 8000 Wavebouys and Weather Stations around the globe.

Join Pro

Comparision Forecast

View Surf forecast
   
Sat 02/13 7:56pm 5 6 mph 1022mb 66f
7:54pm 5
mph
1022mb 66f
7:50pm 2 5 mph 1022mb 66f
7:48pm 3 5 mph 1022mb 66f
7:44pm 2 3 mph 1022mb 66f
7:42pm 3 5 mph 1022mb 66f
7:38pm 3 5 mph 1022mb 67f
7:36pm 5 6 mph 1022mb 68f
7:32pm 6 8 mph 1021.9mb 68f
7:28pm 5 7 mph 1021.9mb 68f
7:26pm 6 8 mph 1021.9mb 68f
7:22pm 5 7 mph 1021.9mb 68f
7:20pm 6 8 mph 1021.9mb 68f
7:16pm 3 5 mph 1021.7mb 68f
7:14pm 5 6 mph 1021.7mb 68f
7:10pm 3 5 mph 1021.7mb 68f
7:08pm 3 5 mph 1021.7mb 69f
7:04pm 5 6 mph 1021.7mb 69f
7:00pm 8 11 mph 1021.7mb 69f
6:58pm 8 10 mph 1021.7mb 69f
6:54pm 8 10 mph 1021.7mb 69f
6:52pm 5 8 mph 1021.5mb 69f
6:48pm 10 14 mph 1021.5mb 69f
6:38pm 10 14 mph 1021.3mb 69f
6:32pm 6 11 mph 1021.3mb 69f
6:28pm 2 6 mph 1021.3mb 69f
6:26pm 5 6 mph 1021.3mb 69f
6:22pm 5 8 mph 1021.2mb 69f
6:20pm 3 7 mph 1021.2mb 69f
6:16pm 2 6 mph 1021.2mb 69f
6:12pm 6 8 mph 1021mb 69f
6:10pm 5 10 mph 1020.8mb 69f
6:06pm 6 11 mph 1020.8mb 69f
6:04pm 2 5 mph 1020.8mb 69f
6:00pm  -  2 mph 1020.8mb 69f
5:58pm 2 5 mph 1020.8mb 70f
5:54pm 3 6 mph 1020.8mb 70f
5:52pm 3 6 mph 1020.8mb 70f
5:48pm 1 3 mph 1020.6mb 70f
5:44pm 1 3 mph 1020.5mb 70f
5:42pm 5 8 mph 1020.5mb 70f
5:38pm 2 5 mph 1020.5mb 70f
5:36pm 3 6 mph 1020.5mb 70f
5:32pm 3 6 mph 1020.5mb 70f
5:30pm 3 7 mph 1020.5mb 71f
5:26pm 2 6 mph 1020.5mb 71f
5:24pm 8 11 mph 1020.5mb 71f
5:20pm 7 14 mph 1020.5mb 71f
5:18pm 8 14 mph 1020.5mb 71f
5:14pm 7 10 mph 1020.3mb 72f
5:10pm 8 14 mph 1020.3mb 72f
5:08pm 8 14 mph 1020mb 72f
5:04pm 8 15 mph 1020.3mb 72f
5:02pm 10 15 mph 1020.1mb 72f
4:59pm 11 17 mph 1020mb 72f
4:57pm 8 17 mph 1020.3mb 72f
4:53pm 10 17 mph 1020.1mb 72f
4:51pm 10 15 mph 1020.5mb 73f
4:47pm 10 17 mph 1020.3mb 73f
4:43pm 14 21 mph 1020.1mb 73f
4:41pm 7 17 mph 1020.5mb 73f
4:37pm 13 18 mph 1020.3mb 73f
4:35pm 8 14 mph 1020.3mb 73f
4:31pm 10 15 mph 1020.3mb 73f
4:29pm 9 15 mph 1020.5mb 73f
4:25pm 13 18 mph 1020.3mb 73f
4:23pm 15 21 mph 1020.3mb 73f
4:19pm 10 18 mph 1020mb 73f
4:17pm 10 16 mph 1020.1mb 74f
4:13pm 13 18 mph 1020.1mb 74f
4:09pm 10 14 mph 1020.3mb 74f
4:07pm 13 18 mph 1020mb 74f
4:03pm 8 14 mph 1020mb 74f
4:01pm 9 14 mph 1020mb 74f
3:57pm 10 15 mph 1020.1mb 74f
3:55pm 14 20 mph 1020.1mb 74f
3:51pm 13 18 mph 1020mb 74f
3:49pm 10 16 mph 1020mb 74f
3:45pm 15 21 mph 1020mb 74f
3:41pm 14 20 mph 1019.8mb 74f
3:33pm 13 18 mph 1020mb 75f
3:29pm 13 22 mph 1020mb 75f
3:27pm 9 15 mph 1020mb 75f
3:23pm 13 16 mph 1020mb 75f
3:21pm 11 17 mph 1020.1mb 75f
3:17pm 9 14 mph 1020.1mb 75f
3:15pm 8 14 mph 1020.1mb 75f
3:11pm 7 11 mph 1020.1mb 75f
3:07pm 8 13 mph 1019.8mb 75f
3:05pm 7 10 mph 1019.8mb 75f
3:01pm 8 14 mph 1020mb 75f
2:59pm 9 17 mph 1020mb 75f
2:55pm 10 15 mph 1019.8mb 75f
2:53pm 8 11 mph 1019.8mb 75f
2:49pm 8 13 mph 1019.8mb 76f
2:47pm 6 13 mph 1019.8mb 75f
2:43pm 9 15 mph 1020mb 75f
2:39pm 8 14 mph 1020mb 74f
2:37pm 11 17 mph 1019.8mb 75f
2:33pm 9 11 mph 1020mb 75f
2:31pm 11 15 mph 1020mb 75f
2:27pm 14 18 mph 1020mb 75f
2:25pm 9 14 mph 1020mb 75f
2:21pm 11 17 mph 1019.8mb 75f
2:19pm 14 17 mph 1020mb 75f
2:15pm 13 18 mph 1019.8mb 75f
2:11pm 9 18 mph 1019.8mb 75f
2:09pm 11 17 mph 1019.8mb 75f
2:05pm 14 18 mph 1020.1mb 75f
2:03pm 17 22 mph 1020mb 75f
1:59pm 7 10 mph 1020.3mb 75f
1:57pm 6 10 mph 1020.3mb 75f
1:53pm 10 17 mph 1020.3mb 76f
1:51pm 14 17 mph 1020.1mb 75f
1:47pm 10 15 mph 1020.1mb 75f
1:43pm 8 11 mph 1020.1mb 75f
1:41pm 14 17 mph 1020mb 75f
1:37pm 11 17 mph 1020mb 75f
1:35pm 11 15 mph 1020mb 75f
1:31pm 14 21 mph 1020.1mb 75f
1:29pm 9 21 mph 1020.1mb 75f
1:25pm 11 17 mph 1020mb 75f
1:23pm 7 10 mph 1020mb 75f
1:19pm 7 16 mph 1020mb 75f
1:15pm 9 14 mph 1020.3mb 76f
1:13pm 10 14 mph 1020.5mb 75f
1:09pm 13 18 mph 1020.1mb 75f
1:07pm 15 21 mph 1020.1mb 75f
1:03pm 8 13 mph 1020.1mb 75f
1:01pm 10 14 mph 1020.3mb 74f
12:57pm 13 17 mph 1020.3mb 74f
12:55pm 15 18 mph 1020.3mb 75f
12:51pm 10 15 mph 1020.3mb 75f
12:49pm 16 21 mph 1020.5mb 75f
12:45pm 16 22 mph 1020.1mb 75f
12:41pm 13 18 mph 1020.1mb 75f
12:39pm 14 22 mph 1020mb 75f
12:35pm 20 26 mph 1020mb 74f
12:33pm 16 25 mph 1020mb 74f
12:29pm 16 22 mph 1020.1mb 74f
12:27pm 16 23 mph 1020.3mb 74f
12:23pm 20 24 mph 1020.1mb 74f
12:21pm 17 23 mph 1020.1mb 74f
12:17pm 13 17 mph 1020.1mb 74f
12:13pm 17 21 mph 1020.1mb 74f
12:11pm 21 26 mph 1020.1mb 74f
12:07pm 17 22 mph 1020.1mb 74f
12:05pm 18 23 mph 1020.1mb 74f
12:01pm 16 24 mph 1020.3mb 73f
11:59am 16 22 mph 1020.5mb 73f
11:55am 18 24 mph 1020.1mb 73f
11:53am 15 21 mph 1020.6mb 73f
11:49am 21 25 mph 1020.5mb 73f
11:45am 20 24 mph 1020.8mb 73f
11:43am 21 25 mph 1020.5mb 73f
11:39am 20 28 mph 1021mb 73f
11:37am 17 22 mph 1020.6mb 73f
11:33am 15 20 mph 1021mb 73f
11:31am 16 24 mph 1021.2mb 74f
11:27am 15 21 mph 1021.3mb 73f
11:25am 18 22 mph 1020.8mb 73f
11:21am 10 15 mph 1021.2mb 74f
11:17am 7 10 mph 1021.3mb 73f
11:15am 10 16 mph 1021mb 74f
11:11am 9 16 mph 1021mb 74f
11:09am 6 8 mph 1021.2mb 73f
11:05am 13 18 mph 1020.8mb 74f
11:03am 9 18 mph 1020.8mb 73f
10:59am 13 15 mph 1021mb 74f
10:57am 14 17 mph 1020.8mb 73f
10:53am 13 18 mph 1021mb 73f
10:49am 11 15 mph 1021.2mb 73f
10:47am 10 13 mph 1021.2mb 73f
10:43am 8 11 mph 1021.2mb 73f
10:41am 7 10 mph 1021.3mb 73f
10:37am 11 15 mph 1021.3mb 73f
10:35am 13 21 mph 1021.3mb 73f
10:31am 13 18 mph 1021.3mb 73f
10:29am 13 17 mph 1021.3mb 73f
10:25am 10 18 mph 1021.5mb 73f
10:21am 11 15 mph 1021.3mb 73f
10:19am 6 10 mph 1021.3mb 73f
10:15am 7 13 mph 1021.5mb 73f
10:13am 6 11 mph 1021.5mb 73f
10:09am 6 11 mph 1021.3mb 73f
10:07am 1 5 mph 1021.2mb 73f
10:03am 3 6 mph 1021.5mb 72f
10:01am 7 10 mph 1021.3mb 72f
9:57am 6 10 mph 1021.7mb 72f
9:53am 10 17 mph 1021.7mb 72f
9:51am 6 10 mph 1021.5mb 72f
9:47am 6 11 mph 1021.7mb 71f
9:45am 13 17 mph 1021.9mb 71f
9:41am 8 15 mph 1021.9mb 71f
9:39am 8 13 mph 1021.5mb 71f
9:35am 10 14 mph 1021.5mb 71f
9:33am 14 20 mph 1021.5mb 71f
9:29am 14 18 mph 1021.5mb 71f
9:27am 11 17 mph 1021.3mb 71f
9:23am 10 15 mph 1021.3mb 71f
9:19am 8 10 mph 1021.3mb 71f
9:17am 9 11 mph 1021.7mb 71f
9:13am 15 18 mph 1021.5mb 71f
9:11am 15 20 mph 1021.3mb 71f
9:07am 16 21 mph 1021.3mb 71f
9:05am 14 17 mph 1021.7mb 71f
9:01am 15 21 mph 1021.7mb 70f
8:59am 15 21 mph 1021.7mb 70f
8:55am 11 15 mph 1021.7mb 70f
8:51am 10 13 mph 1021.5mb 70f
8:49am 10 14 mph 1021.7mb 70f
8:45am 13 17 mph 1021.3mb 70f
8:43am 14 18 mph 1021.3mb 69f
8:39am 10 15 mph 1021.5mb 69f
8:37am 15 20 mph 1021.5mb 69f
8:33am 10 16 mph 1021.7mb 70f
8:31am 10 15 mph 1021.9mb 69f
8:27am 6 11 mph 1021.9mb 69f
8:23am 3 6 mph 1021.7mb 69f
8:21am 3 6 mph 1021.5mb 69f
8:17am  -  2 mph 1021.7mb 68f
8:15am 2 5 mph 1021.5mb 68f
8:11am 3 5 mph 1021.5mb 67f
8:09am 1 5 mph 1021.5mb 66f
8:05am 5 6 mph 1021.5mb 65f
8:03am 5 7 mph 1021.5mb 65f
7:59am 2 6 mph 1021.5mb 65f
7:55am 1 2 mph 1021.5mb 66f
7:53am 1 2 mph 1021.5mb 66f
7:49am 1 2 mph 1021.5mb 66f
7:47am 1 2 mph 1021.5mb 66f
7:43am 2 3 mph 1021.3mb 66f
7:41am 1 2 mph 1021.3mb 66f
7:37am 1 3 mph 1021.5mb 65f
7:35am 2 5 mph 1021.5mb 65f
7:31am 5 6 mph 1021.5mb 65f
7:27am 3 5 mph 1021.5mb 66f
7:25am 3 5 mph 1021.5mb 67f
7:21am 8 10 mph 1021.2mb 68f
7:19am 9 11 mph 1021.2mb 68f
7:15am 8 10 mph 1021mb 68f
7:13am 8 10 mph 1021mb 68f
7:09am 9 10 mph 1021mb 68f
7:07am 9 11 mph 1021mb 68f
7:03am 10 13 mph 1020.8mb 68f
6:59am 10 15 mph 1021mb 68f
6:57am 10 14 mph 1021mb 68f
6:53am 9 11 mph 1021mb 68f
6:51am 10 14 mph 1021mb 68f
6:47am 14 18 mph 1020.8mb 69f
6:45am 15 18 mph 1021mb 69f
6:41am 18 24 mph 1021mb 69f
6:39am 18 24 mph 1020.8mb 69f
6:35am 17 24 mph 1020.8mb 69f
6:33am 16 22 mph 1020.6mb 69f
6:29am 18 24 mph 1020.6mb 68f
6:25am 13 20 mph 1020.8mb 68f
6:23am 15 18 mph 1020.8mb 68f
6:19am 16 22 mph 1020.8mb 68f
6:17am 18 23 mph 1020.6mb 69f
6:13am 17 24 mph 1020.6mb 69f
6:11am 22 26 mph 1020.6mb 68f
6:07am 21 24 mph 1020.5mb 69f
6:03am 16 22 mph 1020.6mb 68f
6:01am 15 18 mph 1020.5mb 68f
5:57am 20 26 mph 1020.3mb 68f
5:55am 20 24 mph 1020.5mb 68f
5:51am 20 24 mph 1020.5mb 68f
5:49am 18 24 mph 1020.3mb 68f
5:45am 18 24 mph 1020.5mb 68f
5:41am 16 22 mph 1020.5mb 68f
5:39am 17 23 mph 1020.5mb 68f
5:35am 18 24 mph 1020.5mb 68f
5:33am 16 25 mph 1020.3mb 68f
5:29am 18 24 mph 1020.3mb 68f
5:27am 15 21 mph 1020.5mb 68f
5:23am 17 21 mph 1020.1mb 69f
5:19am 22 28 mph 1020.1mb 69f
5:17am 23 29 mph 1019.8mb 69f
5:13am 20 25 mph 1019.8mb 69f
5:11am 18 28 mph 1020mb 69f
5:07am 18 25 mph 1020mb 69f
5:05am 20 25 mph 1020mb 69f
5:01am 20 25 mph 1020mb 69f
4:57am 18 28 mph 1019.6mb 69f
4:55am 22 28 mph 1019.6mb 69f
4:51am 18 28 mph 1019.4mb 69f
4:49am 22 30 mph 1019.8mb 69f
4:45am 16 22 mph 1019.6mb 69f
4:41am 17 22 mph 1019.8mb 69f
4:39am 20 31 mph 1019.6mb 69f
4:35am 21 25 mph 1019.6mb 69f
4:33am 20 24 mph 1019.8mb 69f
4:29am 15 21 mph 1019.6mb 69f
4:27am 16 22 mph 1019.8mb 69f
4:23am 11 18 mph 1019.8mb 69f
4:19am 13 16 mph 1019.8mb 69f
4:17am 13 18 mph 1019.8mb 69f
4:13am 15 21 mph 1019.8mb 69f
4:11am 11 22 mph 1019.6mb 69f
4:07am 14 20 mph 1019.6mb 69f
4:05am 15 21 mph 1019.6mb 69f
4:01am 18 22 mph 1019.6mb 70f
3:57am 15 22 mph 1019.4mb 70f
3:55am 13 18 mph 1019.6mb 69f
3:51am 8 15 mph 1019.8mb 69f
3:49am 9 13 mph 1019.8mb 69f
3:45am 10 15 mph 1019.8mb 69f
3:43am 9 13 mph 1019.8mb 69f
3:39am 10 15 mph 1019.8mb 69f
3:35am 8 14 mph 1019.8mb 69f
3:33am 10 15 mph 1020mb 69f
3:29am 10 15 mph 1020mb 69f
3:27am 7 10 mph 1019.8mb 69f
3:23am 7 13 mph 1019.8mb 69f
3:21am 8 16 mph 1019.8mb 69f
3:17am 8 17 mph 1019.8mb 69f
3:13am 15 20 mph 1019.8mb 69f
3:11am 16 22 mph 1019.6mb 69f
3:07am 14 20 mph 1019.8mb 69f
3:05am 17 24 mph 1019.6mb 69f
3:01am 18 24 mph 1019.3mb 69f
2:59am 18 24 mph 1019.6mb 69f
2:55am 22 25 mph 1019.4mb 70f
2:51am 18 25 mph 1019.3mb 69f
2:49am 18 24 mph 1019.6mb 69f
2:45am 17 25 mph 1019.6mb 69f
2:43am 18 24 mph 1019.6mb 70f
2:39am 17 24 mph 1019.6mb 69f
2:37am 14 21 mph 1019.6mb 69f
2:33am 20 24 mph 1019.6mb 70f
2:29am 17 24 mph 1019.6mb 69f
2:27am 17 22 mph 1019.6mb 69f
2:23am 14 20 mph 1019.3mb 69f
2:21am 18 24 mph 1019.6mb 70f
2:17am 17 25 mph 1019.6mb 70f
2:15am 16 22 mph 1019.6mb 70f
2:11am 14 18 mph 1019.8mb 70f
2:07am 14 17 mph 1019.8mb 70f
2:05am 11 15 mph 1019.6mb 69f
2:01am 8 13 mph 1019.8mb 69f
1:59am 7 10 mph 1019.8mb 69f
1:55am 9 14 mph 1020mb 70f
1:53am 7 9 mph 1020mb 69f
1:49am 6 11 mph 1020mb 69f
1:47am 5 8 mph 1020mb 69f
1:43am 9 13 mph 1020mb 70f
1:39am 3 6 mph 1019.8mb 69f
1:37am 3 6 mph 1020mb 69f
1:33am 3 6 mph 1020mb 69f
1:31am 8 11 mph 1020mb 69f
1:27am 7 9 mph 1019.8mb 69f
1:25am 7 8 mph 1019.8mb 69f
1:21am 8 14 mph 1020mb 69f
1:17am 5 6 mph 1019.8mb 68f
1:15am 7 10 mph 1020mb 68f
1:11am 5 8 mph 1020mb 67f
1:09am 2 5 mph 1020mb 67f
1:05am 5 7 mph 1020mb 67f
1:03am 3 5 mph 1020mb 67f
12:59am 3 6 mph 1020mb 67f
12:55am 2 5 mph 1020mb 64f
12:53am 1 3 mph 1020mb 65f
12:49am 2 3 mph 1020mb 64f
12:47am 3 6 mph 1020mb 63f
12:43am 2 5 mph 1020mb 61f
12:41am 2 5 mph 1020mb 61f
12:37am 3 6 mph 1020mb 61f
12:35am 3 7 mph 1020.1mb 60f
12:31am 5 6 mph 1020.1mb 60f
12:29am 5 8 mph 1020.1mb 60f
12:25am 3 6 mph 1020.1mb 58f
12:21am 1 2 mph 1020.1mb 58f
12:19am 1 3 mph 1020.1mb 58f
12:15am 2 3 mph 1020.1mb 58f
12:13am 3 8 mph 1020.1mb 58f
12:09am  -  2 mph 1020.3mb 57f
12:07am 1 2 mph 1020.1mb 57f
12:03am  -  2 mph 1020.3mb 58f
12:01am 2 3 mph 1020.3mb 58f
Fri 02/12 11:57pm 1 2 mph 1020.1mb 57f
11:53pm 1 2 mph 1020.1mb 57f
11:51pm 2 3 mph 1020.1mb 57f
11:47pm 1 2 mph 1020.1mb 58f
11:45pm 2
mph
1020.1mb 58f
11:41pm 2
mph
1020.1mb 57f
11:39pm  -  2 mph 1020.1mb 56f
11:35pm 2
mph
1020.1mb 56f
11:33pm 1 2 mph 1020.1mb 56f
11:29pm  -  1 mph 1020.1mb 56f
11:25pm  -  2 mph 1020.1mb 56f
11:23pm  -  1 mph 1020.1mb 55f
11:19pm  -  1 mph 1020mb 56f
11:17pm 1 2 mph 1020mb 56f
11:13pm 2 3 mph 1020mb 55f
11:11pm 1 2 mph 1020mb 55f
11:07pm 2 3 mph 1020mb 55f
11:05pm 2
mph
1020mb 55f
11:01pm 2 5 mph 1020mb 55f
10:59pm 2 3 mph 1020mb 56f
10:55pm 2 5 mph 1020mb 56f
10:51pm 2 3 mph 1020mb 56f
10:49pm 2 5 mph 1020mb 56f
10:45pm 3 5 mph 1020.1mb 56f
10:43pm 3 5 mph 1020mb 56f
10:39pm 2 5 mph 1020mb 56f
10:37pm 3 5 mph 1020mb 56f
10:33pm 2 3 mph 1020mb 56f
10:31pm 3 5 mph 1020mb 56f
10:27pm 3 5 mph 1020mb 56f
10:23pm 3 5 mph 1020mb 56f
10:21pm 3 5 mph 1020mb 56f
10:17pm 2 3 mph 1020mb 56f
10:15pm 2 3 mph 1020mb 56f
10:11pm 1 2 mph 1020mb 56f
10:09pm  -  2 mph 1020mb 56f
9:55pm  -  2 mph 1019.8mb 55f
9:15pm  -  2 mph 1019.8mb 55f
9:13pm  -  2 mph 1019.8mb 55f
9:09pm 2 3 mph 1019.8mb 55f
9:07pm  -  1 mph 1019.8mb 55f
9:03pm  -  1 mph 1019.8mb 55f
9:01pm  -  2 mph 1019.8mb 55f
8:57pm  -  2 mph 1019.8mb 56f
8:53pm  -  1 mph 1019.8mb 56f
8:51pm  -  1 mph 1019.8mb 56f
8:47pm 1 2 mph 1019.6mb 56f
8:45pm  -  1 mph 1019.8mb 56f
8:41pm  -  2 mph 1019.6mb 56f
8:39pm  -  1 mph 1019.6mb 56f
8:35pm  -  2 mph 1019.8mb 56f
8:33pm  -  2 mph 1019.6mb 56f
8:29pm 1 2 mph 1019.6mb 56f
8:25pm 1 2 mph 1019.6mb 56f
8:23pm 2 5 mph 1019.6mb 56f
8:19pm 1 2 mph 1019.6mb 56f
8:17pm 2 3 mph 1019.6mb 56f
8:13pm 2
mph
1019.6mb 56f
8:11pm 2
mph
1019.6mb 56f
8:07pm 2
mph
1019.6mb 57f
8:05pm 2
mph
1019.6mb 57f
8:01pm 2
mph
1019.6mb 57f
7:57pm 1 2 mph 1019.6mb 57f
7:55pm 2
mph
1019.6mb 57f
7:51pm 3 5 mph 1019.6mb 57f
7:49pm 2 3 mph 1019.4mb 57f
7:45pm 2 3 mph 1019.6mb 57f
7:43pm 3 5 mph 1019.4mb 57f
7:39pm 2 3 mph 1019.4mb 58f
7:37pm 3 5 mph 1019.4mb 58f
7:33pm 2
mph
1019.4mb 58f
7:31pm 2 3 mph 1019.4mb 58f
7:27pm 1 2 mph 1019.6mb 58f
7:23pm  -  2 mph 1019.4mb 57f
7:17pm  -  2 mph 1019.6mb 57f
7:11pm  -  1 mph 1019.4mb 57f
7:09pm  -  1 mph 1019.4mb 57f
7:05pm  -  1 mph 1019.4mb 58f
7:03pm  -  2 mph 1019.4mb 58f
6:59pm  -  1 mph 1019.4mb 58f
6:55pm  -  1 mph 1019.3mb 58f
6:53pm  -  1 mph 1019.3mb 58f
6:49pm 1 2 mph 1019.3mb 59f
6:41pm 5 6 mph 1019.3mb 59f
6:33pm 5 6 mph 1019.1mb 59f
6:29pm 5 7 mph 1019.1mb 59f
6:27pm 6 7 mph 1019.1mb 59f
6:23pm 2 3 mph 1019.1mb 59f
6:19pm 5 6 mph 1019.1mb 59f
6:17pm 5 6 mph 1018.9mb 59f
6:13pm 2 3 mph 1018.9mb 60f
6:11pm 2 5 mph 1018.9mb 60f
6:07pm 2
mph
1018.9mb 60f
6:01pm 2 3 mph 1018.9mb 60f
5:59pm 2
mph
1018.9mb 60f
5:55pm  -  2 mph 1018.9mb 60f
5:53pm  -  1 mph 1018.9mb 59f
5:49pm  -  1 mph 1018.9mb 59f
5:45pm  -  mph 1018.9mb 59f
5:43pm  -  1 mph 1018.9mb 60f
5:39pm  -  1 mph 1018.8mb 60f
5:37pm  -  mph 1018.8mb 60f
5:33pm  -  1 mph 1018.8mb 60f
5:31pm 2 3 mph 1018.8mb 60f
5:27pm  -  1 mph 1018.8mb 60f
5:25pm  -  2 mph 1018.8mb 60f
5:21pm  -  1 mph 1018.8mb 60f
5:17pm  -  1 mph 1018.6mb 61f
5:15pm  -  1 mph 1018.8mb 61f
5:11pm  -  1 mph 1018.8mb 61f
5:09pm  -  1 mph 1018.8mb 61f
5:05pm  -  1 mph 1018.6mb 61f
5:03pm  -  1 mph 1018.6mb 61f
4:59pm 1 2 mph 1018.6mb 61f
4:57pm  -  2 mph 1018.6mb 60f
4:53pm 1 2 mph 1018.6mb 60f
4:51pm 1 2 mph 1018.6mb 60f
4:47pm 2
mph
1018.6mb 61f
4:43pm  -  1 mph 1018.6mb 61f
4:41pm  -  1 mph 1018.6mb 61f
4:37pm  -  1 mph 1018.4mb 61f
4:35pm  -  1 mph 1018.4mb 61f
4:31pm  -  1 mph 1018.4mb 61f
4:29pm  -  1 mph 1018.4mb 60f
4:25pm  -  2 mph 1018.4mb 60f
4:23pm  -  1 mph 1018.4mb 60f
4:19pm  -  1 mph 1018.4mb 60f
4:17pm 1 2 mph 1018.4mb 61f
4:13pm  -  2 mph 1018.4mb 60f
4:09pm 1 2 mph 1018.4mb 60f
4:07pm 1 2 mph 1018.4mb 60f
4:03pm  -  2 mph 1018.4mb 60f
4:01pm  -  1 mph 1018.6mb 60f
3:57pm  -  2 mph 1018.6mb 60f
3:55pm 1 2 mph 1018.6mb 60f
3:51pm 2
mph
1018.6mb 60f
3:49pm 2
mph
1018.4mb 60f
3:45pm 2
mph
1018.6mb 59f
3:43pm 2
mph
1018.6mb 59f
3:35pm 2 3 mph 1018.6mb 59f
3:33pm 2
mph
1018.6mb 59f
3:29pm 3 5 mph 1018.6mb 59f
3:27pm 3 5 mph 1018.6mb 59f
3:23pm 3 5 mph 1018.6mb 60f
3:21pm 3 5 mph 1018.6mb 60f
3:17pm 2
mph
1018.6mb 60f
3:15pm 2
mph
1018.6mb 60f
3:11pm 1 2 mph 1018.6mb 60f
3:07pm 1 2 mph 1018.6mb 60f
3:05pm 2
mph
1018.6mb 60f
3:01pm 2
mph
1018.6mb 60f
2:59pm 2
mph
1018.6mb 60f
2:55pm 1 2 mph 1018.4mb 60f
2:53pm 1 2 mph 1018.6mb 60f
2:49pm 2
mph
1018.4mb 60f
2:47pm 1 2 mph 1018.4mb 60f
2:43pm 1 2 mph 1018.4mb 60f
2:39pm 1 2 mph 1018.4mb 59f
2:37pm 1 2 mph 1018.4mb 60f
2:33pm 1 2 mph 1018.4mb 60f
2:31pm  -  1 mph 1018.4mb 59f
2:27pm 1 2 mph 1018.4mb 59f
2:25pm 1 2 mph 1018.4mb 58f
2:21pm 2 3 mph 1018.6mb 58f
2:19pm 2 5 mph 1018.4mb 57f
2:15pm 5 6 mph 1018.6mb 57f
2:11pm 6
mph
1018.4mb 57f
2:09pm 6 8 mph 1018.6mb 57f
2:05pm 7 8 mph 1018.6mb 57f
2:03pm 7 8 mph 1018.8mb 57f
1:59pm 7 8 mph 1018.8mb 57f
1:53pm 7 8 mph 1018.8mb 57f
1:51pm 6 7 mph 1018.8mb 57f
1:47pm 5 6 mph 1018.8mb 57f
1:45pm 5 6 mph 1018.8mb 58f
1:41pm 3 5 mph 1018.8mb 58f
1:37pm 3 6 mph 1018.9mb 58f
1:35pm 3 6 mph 1018.9mb 58f
1:31pm 5 6 mph 1018.9mb 57f
1:29pm 5 6 mph 1018.9mb 57f
1:25pm 5 6 mph 1018.9mb 57f
1:23pm 5 6 mph 1018.9mb 57f
1:19pm 5 6 mph 1019.1mb 57f
1:17pm 5
mph
1019.1mb 58f
1:13pm 3 5 mph 1019.1mb 58f
1:09pm 2 5 mph 1019.3mb 58f
1:03pm 2
mph
1019.3mb 57f
1:01pm 2 3 mph 1019.4mb 57f
12:57pm 2 5 mph 1019.4mb 56f
12:55pm 5 7 mph 1019.4mb 55f
12:51pm 5 6 mph 1019.6mb 55f
12:49pm 6 7 mph 1019.6mb 55f
12:45pm 6
mph
1019.8mb 55f
12:41pm 7 8 mph 1019.8mb 55f
12:39pm 6 8 mph 1019.8mb 55f
12:35pm 6 7 mph 1020mb 55f
12:33pm 6
mph
1020mb 55f
12:29pm 3 6 mph 1020mb 55f
12:27pm 2 5 mph 1020mb 56f
12:23pm 2 3 mph 1020mb 56f
12:21pm 2 3 mph 1020mb 56f
12:17pm 2 3 mph 1020.1mb 56f
12:15pm 2 3 mph 1020.1mb 56f
12:11pm 2
mph
1020.1mb 57f
12:07pm 2 3 mph 1020.3mb 57f
12:05pm 2 3 mph 1020.3mb 57f
12:01pm 2 3 mph 1020.3mb 57f
11:59am 3 5 mph 1020.3mb 57f
11:55am 3
mph
1020.3mb 57f
11:53am 2 5 mph 1020.3mb 57f
11:49am 2
mph
1020.5mb 58f
11:47am 2
mph
1020.5mb 58f
11:43am 1 2 mph 1020.5mb 58f
11:39am 1 2 mph 1020.5mb 58f
11:37am 1 2 mph 1020.6mb 58f
11:33am 2
mph
1020.6mb 57f
11:31am 2
mph
1020.6mb 57f
11:27am 1 2 mph 1020.6mb 58f
11:25am 2
mph
1020.6mb 58f
11:21am 1 2 mph 1020.6mb 59f
11:19am 2
mph
1020.6mb 59f
11:15am 2
mph
1020.8mb 58f
11:11am 2
mph
1020.8mb 58f
11:09am 1 2 mph 1020.8mb 58f
11:05am 2
mph
1021mb 57f
11:03am 2 3 mph 1021mb 57f
10:57am 3 5 mph 1021mb 57f
10:53am 2
mph
1021mb 58f
10:51am 1 2 mph 1021.2mb 58f
10:47am 1 2 mph 1021.2mb 58f
10:45am 1 2 mph 1021.2mb 57f
10:41am 1 2 mph 1021.2mb 57f
10:37am 1 2 mph 1021.2mb 57f
10:35am  -  2 mph 1021.2mb 57f
10:31am  -  2 mph 1021.2mb 56f
10:29am 2 3 mph 1021.2mb 56f
10:25am 2 3 mph 1021.2mb 55f
10:23am 2 5 mph 1021.2mb 55f
10:19am 2 3 mph 1021.2mb 55f
10:17am 2 3 mph 1021.2mb 55f
10:13am 3 5 mph 1021.2mb 55f
10:09am 5 7 mph 1021.2mb 55f
10:07am 5 6 mph 1021.2mb 54f
10:03am 2 5 mph 1021.2mb 54f
10:01am 2 5 mph 1021.2mb 54f
9:57am 2 3 mph 1021.2mb 54f
9:55am 3 5 mph 1021.2mb 54f
9:51am 2 3 mph 1021.2mb 54f
9:49am 2
mph
1021.2mb 54f
9:45am  -  1 mph 1021.2mb 55f
9:43am  -  1 mph 1021.2mb 54f
9:39am 1 2 mph 1021.2mb 54f
9:35am 2 3 mph 1021.2mb 53f
9:33am 2
mph
1021.2mb 53f
9:29am 2 3 mph 1021.3mb 53f
9:27am 1 2 mph 1021.2mb 52f
9:23am 1 2 mph 1021.3mb 52f
9:21am  -  2 mph 1021.3mb 51f
9:17am  -  2 mph 1021.2mb 51f
9:15am  -  2 mph 1021.2mb 52f
9:11am  -  1 mph 1021.2mb 53f
9:07am  -  1 mph 1021.2mb 52f
9:05am  -  1 mph 1021.2mb 52f
9:01am  -  1 mph 1021.2mb 51f
8:59am  -  2 mph 1021.2mb 51f
8:55am 1 2 mph 1021.2mb 51f
8:53am 1 2 mph 1021.2mb 50f
8:49am 1 2 mph 1021.2mb 50f
8:47am  -  2 mph 1021.2mb 50f
8:43am 1 2 mph 1021mb 50f
8:39am 1 2 mph 1021.2mb 50f
8:37am 2 5 mph 1021mb 50f
8:33am 3 5 mph 1021mb 50f
8:31am 3 6 mph 1021mb 49f
8:27am 5 6 mph 1021.2mb 49f
8:25am 3 5 mph 1021mb 49f
8:21am 2 5 mph 1021.2mb 49f
8:19am 2 5 mph 1021.2mb 49f
8:15am 3 5 mph 1021.2mb 49f
8:11am 2 5 mph 1021.2mb 48f
8:09am 2 3 mph 1021mb 48f
8:05am  -  1 mph 1021mb 48f
8:03am  -  2 mph 1021mb 48f
7:59am 1 2 mph 1021mb 48f
7:57am 2 3 mph 1021mb 48f
7:53am 2 3 mph 1021mb 47f
7:51am 5 6 mph 1020.8mb 47f
7:47am  -  2 mph 1020.8mb 47f
7:43am 2 3 mph 1020.8mb 47f
7:41am 2 5 mph 1020.8mb 47f
7:37am 2
mph
1020.8mb 47f
7:35am 2 3 mph 1020.8mb 47f
7:31am 2 5 mph 1020.8mb 46f
7:29am 3 5 mph 1020.6mb 46f
7:25am 5 6 mph 1020.6mb 46f
7:23am 3 6 mph 1020.6mb 46f
7:19am 3 6 mph 1020.8mb 46f
7:17am 3 6 mph 1020.6mb 46f
7:13am 2 6 mph 1020.6mb 47f
7:09am  -  2 mph 1020.6mb 47f
7:07am  -  2 mph 1020.6mb 47f
7:01am 2 3 mph 1020.8mb 46f
6:57am 5 6 mph 1020.6mb 45f
6:55am 5 6 mph 1020.6mb 45f
6:51am 5 6 mph 1020.6mb 45f
6:49am 3 5 mph 1020.6mb 46f
6:45am 5 6 mph 1020.6mb 46f
6:43am 5
mph
1020.6mb 46f
6:39am 5 6 mph 1020.6mb 46f
6:35am 3 5 mph 1020.6mb 46f
6:33am 3 5 mph 1020.6mb 45f
6:29am 5 6 mph 1020.6mb 46f
6:27am 5 6 mph 1020.6mb 46f
6:23am 7 8 mph 1020.5mb 45f
6:21am 6
mph
1020.5mb 45f
6:17am 6 8 mph 1020.5mb 46f
6:15am 5 7 mph 1020.5mb 46f
6:11am 5 7 mph 1020.5mb 46f
6:07am 5 6 mph 1020.5mb 46f
6:05am 5 6 mph 1020.5mb 46f
6:01am 5 6 mph 1020.5mb 46f
5:59am 5 6 mph 1020.5mb 46f
5:55am 5 6 mph 1020.5mb 46f
5:53am 5 6 mph 1020.5mb 47f
5:49am 3 6 mph 1020.5mb 47f
5:47am 5 6 mph 1020.5mb 47f
5:43am 2 5 mph 1020.6mb 48f
5:39am 5 6 mph 1020.6mb 48f
5:37am 3 5 mph 1020.6mb 48f
5:33am 3 5 mph 1020.5mb 47f
5:31am 3 5 mph 1020.6mb 47f
5:27am 5 6 mph 1020.6mb 47f
5:25am 3 5 mph 1020.6mb 47f
5:21am 5 6 mph 1020.6mb 47f
5:19am 5 6 mph 1020.6mb 47f
5:15am 3 5 mph 1020.6mb 47f
5:13am 3 5 mph 1020.6mb 47f
5:09am 3 5 mph 1020.6mb 47f
5:05am 5 6 mph 1020.6mb 47f
5:03am 5 6 mph 1020.6mb 47f
4:59am 3 6 mph 1020.6mb 47f
4:57am 3 6 mph 1020.6mb 47f
4:53am 3 6 mph 1020.6mb 46f
4:51am 5 6 mph 1020.6mb 46f
4:47am 5 6 mph 1020.5mb 46f
4:45am 5 6 mph 1020.6mb 46f
4:41am 5 7 mph 1020.5mb 46f
4:37am 7 8 mph 1020.5mb 46f
4:35am 7 9 mph 1020.5mb 46f
4:31am 7 10 mph 1020.6mb 46f
4:29am 8 10 mph 1020.5mb 46f
4:25am 7 8 mph 1020.5mb 46f
4:23am 7 8 mph 1020.6mb 46f
4:19am 7 8 mph 1020.6mb 47f
4:17am 7 8 mph 1020.6mb 46f
4:13am 6 8 mph 1020.5mb 46f
4:11am 6 7 mph 1020.5mb 47f
4:07am 6 8 mph 1020.5mb 47f
4:03am 6 7 mph 1020.6mb 46f
4:01am 5 6 mph 1020.6mb 46f
3:57am 5 6 mph 1020.6mb 47f
3:55am 5 6 mph 1020.6mb 47f
3:51am 5 6 mph 1020.6mb 47f
3:49am 5 6 mph 1020.6mb 47f
3:45am 5 6 mph 1020.8mb 47f
3:43am 5 6 mph 1020.6mb 47f
3:39am 5 6 mph 1020.8mb 47f
3:35am 5
mph
1020.8mb 47f
3:33am 5 6 mph 1020.6mb 47f
3:29am 5 6 mph 1020.8mb 47f
3:27am 5 6 mph 1020.8mb 47f
3:23am 5 6 mph 1020.8mb 47f
3:21am 5 6 mph 1020.8mb 47f
3:17am 5 6 mph 1020.8mb 47f
3:15am 5 6 mph 1020.8mb 47f
3:11am 5 6 mph 1020.8mb 47f
3:07am 6 7 mph 1020.8mb 47f
3:05am 6 7 mph 1020.8mb 47f
3:01am 6 8 mph 1020.8mb 47f
2:59am 6 8 mph 1020.8mb 47f
2:55am 6 7 mph 1020.8mb 47f
2:53am 6 7 mph 1021mb 47f
2:49am 5 6 mph 1021mb 47f
2:47am 5 6 mph 1021mb 47f
2:43am 6
mph
1021mb 47f
2:41am 6 7 mph 1021mb 47f
2:37am 6 7 mph 1021mb 47f
2:33am 5 6 mph 1021.2mb 47f
2:31am 5 6 mph 1021.2mb 47f
2:27am 5 6 mph 1021.2mb 47f
2:25am 5 6 mph 1021.2mb 47f
2:21am 2 3 mph 1021.3mb 47f
2:19am 2 3 mph 1021.3mb 47f
2:15am 2 5 mph 1021.3mb 47f
2:13am 3 5 mph 1021.3mb 47f
2:09am 5 6 mph 1021.2mb 47f
2:05am 5 6 mph 1021.3mb 47f
2:03am 5 6 mph 1021.3mb 48f
1:59am 5 6 mph 1021.3mb 48f
1:57am 5 6 mph 1021.3mb 48f
1:53am 5 6 mph 1021.5mb 48f
1:51am 5
mph
1021.3mb 48f
1:47am 3 5 mph 1021.3mb 47f
1:45am 3 5 mph 1021.3mb 47f
1:41am 3 5 mph 1021.3mb 47f
1:39am 3 5 mph 1021.3mb 47f
1:35am 5 6 mph 1021.3mb 47f
1:31am 5 6 mph 1021.2mb 47f
1:29am 5 6 mph 1021.3mb 47f
1:25am 5 6 mph 1021.3mb 47f
1:23am 5 6 mph 1021.3mb 47f
1:19am 5
mph
1021.3mb 47f
1:17am 5
mph
1021.3mb 48f
1:13am 5 6 mph 1021.3mb 48f
1:11am 5 6 mph 1021.2mb 48f
1:07am 5 6 mph 1021.3mb 47f
1:03am 5 6 mph 1021.3mb 47f
1:01am 5 6 mph 1021.2mb 47f
12:57am 5 6 mph 1021.2mb 48f
12:55am 5 6 mph 1021.2mb 48f
12:51am 3 5 mph 1021.3mb 49f
12:49am 5 6 mph 1021.3mb 49f
12:45am 5 6 mph 1021.3mb 49f
12:43am 5 6 mph 1021.3mb 49f
12:39am 5 6 mph 1021.5mb 48f
12:37am 5 6 mph 1021.5mb 48f
12:33am 5 6 mph 1021.5mb 48f
12:29am 6 7 mph 1021.5mb 48f
12:27am 6 7 mph 1021.5mb 48f
12:23am 6 7 mph 1021.7mb 48f
12:21am 6 8 mph 1021.7mb 48f
12:17am 6 8 mph 1021.7mb 48f
12:15am 6 8 mph 1021.7mb 49f
12:11am 7 8 mph 1021.7mb 49f
12:09am 7 8 mph 1021.7mb 49f
12:05am 6 8 mph 1021.7mb 50f
12:01am 5 6 mph 1021.7mb 50f
Thu 02/11 11:59pm 5 6 mph 1021.7mb 51f
11:55pm 2 3 mph 1021.9mb 51f
11:53pm 2 3 mph 1021.9mb 51f
11:49pm 2 3 mph 1021.9mb 51f
11:47pm  -  2 mph 1021.9mb 51f
11:43pm 3 5 mph 1021.9mb 51f
11:41pm 2 5 mph 1021.9mb 51f
11:37pm 3 5 mph 1021.9mb 50f
11:35pm 3 5 mph 1021.9mb 50f
11:31pm 2 3 mph 1021.9mb 50f
11:27pm  -  2 mph 1022mb 50f
11:25pm  -  1 mph 1021.9mb 50f
11:21pm  -  2 mph 1022mb 50f
11:19pm  -  1 mph 1021.9mb 50f
11:15pm  -  2 mph 1021.9mb 50f
11:13pm  -  1 mph 1021.9mb 50f
11:09pm  -  2 mph 1021.9mb 50f
11:07pm 2
mph
1021.7mb 50f
11:03pm  -  1 mph 1021.9mb 50f
11:01pm  -  2 mph 1021.7mb 50f
10:57pm 1 2 mph 1021.7mb 50f
10:53pm  -  2 mph 1021.5mb 50f
10:51pm 2
mph
1021.5mb 50f
10:47pm 2 3 mph 1021.5mb 50f
10:45pm 2 5 mph 1021.5mb 51f
10:41pm 3 5 mph 1021.5mb 50f
10:39pm 3 5 mph 1021.5mb 50f
10:35pm 2 3 mph 1021.5mb 51f
10:33pm 2 5 mph 1021.5mb 51f
10:29pm 1 2 mph 1021.5mb 51f
10:27pm 1 2 mph 1021.5mb 51f
10:23pm 1 2 mph 1021.5mb 51f
10:19pm  -  1 mph 1021.5mb 51f
10:17pm 2
mph
1021.5mb 51f
10:13pm 1 3 mph 1021.3mb 51f
10:11pm 2 5 mph 1021.3mb 51f
10:07pm 2 5 mph 1021.3mb 51f
10:05pm 1 2 mph 1021.3mb 52f
9:15pm 1 2 mph 1021.3mb 52f
9:11pm 1 2 mph 1021.3mb 52f
9:09pm 2
mph
1021.3mb 52f
9:05pm 2 3 mph 1021.3mb 52f
9:03pm 2 3 mph 1021.3mb 52f
8:59pm 2 3 mph 1021.3mb 53f
8:57pm 2 3 mph 1021.3mb 53f
8:53pm 1 3 mph 1021.3mb 53f
8:51pm 2 3 mph 1021.2mb 53f
8:47pm  -  2 mph 1021.2mb 53f
8:45pm  -  1 mph 1021.2mb 53f
8:41pm 1 2 mph 1021.2mb 53f
8:35pm 2 3 mph 1021.2mb 53f
8:31pm 1 2 mph 1021.2mb 53f
8:29pm 1 2 mph 1021.2mb 53f
8:25pm 2
mph
1021.2mb 53f
8:23pm 2
mph
1021.2mb 53f
8:19pm  -  2 mph 1021.2mb 53f
8:17pm 1 2 mph 1021.2mb 53f
8:13pm  -  1 mph 1021.2mb 53f
8:11pm 1 2 mph 1021.2mb 53f
8:07pm 2 3 mph 1021.2mb 53f
8:03pm 1 3 mph 1021mb 53f
8:01pm  -  2 mph 1021mb 53f
7:57pm  -  2 mph 1021mb 53f
7:55pm 1 2 mph 1021mb 53f
7:51pm 2
mph
1020.8mb 53f
7:49pm 2 5 mph 1020.8mb 53f
7:45pm 5 6 mph 1020.8mb 53f
7:43pm 3 5 mph 1020.8mb 53f
7:39pm 2 3 mph 1020.8mb 53f
7:35pm 2 3 mph 1020.6mb 53f
7:33pm 2
mph
1020.6mb 53f
7:29pm 1 2 mph 1020.8mb 53f
7:27pm 2
mph
1020.8mb 53f
7:23pm 2 3 mph 1020.8mb 53f
7:17pm 3 5 mph 1020.6mb 53f
7:11pm 5 6 mph 1020.6mb 54f
7:09pm 6
mph
1020.6mb 54f
7:05pm 7 8 mph 1020.5mb 54f
7:01pm 6 7 mph 1020.5mb 54f
6:59pm 6
mph
1020.5mb 54f
6:55pm 6 7 mph 1020.5mb 54f
6:53pm 6 7 mph 1020.5mb 54f
6:49pm 6 7 mph 1020.5mb 55f
6:41pm 5 6 mph 1020.3mb 55f
6:33pm 5 6 mph 1020.3mb 55f
6:29pm 3 5 mph 1020.3mb 55f
6:27pm 3 5 mph 1020.3mb 55f
6:23pm 5 6 mph 1020.3mb 55f
6:19pm 5 6 mph 1020.1mb 55f
6:17pm 5 6 mph 1020.1mb 55f
6:13pm 5 6 mph 1020.1mb 55f
6:11pm 6
mph
1020.1mb 55f
6:07pm 6
mph
1020.1mb 55f
6:01pm 6 7 mph 1020.1mb 55f
5:59pm 6 7 mph 1020.1mb 55f
5:55pm 7 8 mph 1020.1mb 55f
5:53pm 6 7 mph 1020.1mb 55f
5:49pm 6 8 mph 1020mb 55f
5:45pm 7 8 mph 1020mb 56f
5:43pm 7 8 mph 1020mb 55f
5:39pm 6
mph
1020mb 56f
5:37pm 5 6 mph 1020mb 56f
5:33pm 5 6 mph 1020mb 56f
5:31pm 5 6 mph 1020mb 56f
5:27pm 6
mph
1020mb 57f
5:25pm 6 7 mph 1020mb 57f
5:21pm 6 7 mph 1020mb 57f
5:19pm 6
mph
1020mb 57f
5:15pm 6
mph
1019.8mb 57f
5:11pm 5 6 mph 1020mb 58f
5:09pm 5 6 mph 1020mb 58f
5:05pm 5
mph
1020mb 58f
5:03pm 3 5 mph 1020mb 58f
4:59pm 5
mph
1020mb 58f
4:57pm 5 6 mph 1020mb 58f
4:53pm 5 6 mph 1020mb 58f
4:51pm 3 5 mph 1019.8mb 58f
4:47pm 3 5 mph 1019.8mb 58f
4:45pm 3 5 mph 1019.8mb 58f
4:41pm 6
mph
1019.8mb 59f
4:37pm 5 6 mph 1019.8mb 59f
4:35pm 5 6 mph 1019.8mb 59f
4:31pm 6
mph
1019.6mb 59f
4:29pm 6 7 mph 1019.8mb 59f
4:25pm 6
mph
1019.6mb 60f
4:23pm 5 7 mph 1019.6mb 60f
4:19pm 5 6 mph 1019.6mb 60f
4:17pm 5 6 mph 1019.6mb 61f
4:13pm 5 6 mph 1019.6mb 61f
4:09pm 6 8 mph 1019.4mb 61f
4:07pm 7 8 mph 1019.4mb 61f
4:03pm 7 8 mph 1019.4mb 62f
4:01pm 7 8 mph 1019.4mb 62f
3:57pm 7 8 mph 1019.3mb 62f
3:55pm 7 8 mph 1019.3mb 63f
3:51pm 6 8 mph 1019.3mb 63f
3:49pm 7 8 mph 1019.3mb 63f
3:45pm 6 8 mph 1019.4mb 63f
3:41pm 6 8 mph 1019.4mb 63f
3:35pm 6 7 mph 1019.4mb 64f
3:33pm 5 6 mph 1019.4mb 64f
3:29pm 2 5 mph 1019.6mb 64f
3:27pm 2 5 mph 1019.3mb 64f
3:23pm  -  1 mph 1019.4mb 65f
3:21pm  -  2 mph 1019.4mb 65f
3:17pm  -  2 mph 1019.4mb 65f
3:15pm 1 2 mph 1019.1mb 65f
3:11pm 2 3 mph 1019.4mb 64f
3:07pm 1 2 mph 1019.3mb 65f
3:05pm  -  2 mph 1019.1mb 65f
3:01pm  -  2 mph 1019.3mb 65f
2:59pm  -  2 mph 1019.4mb 65f
2:55pm  -  2 mph 1019.1mb 64f
2:53pm 2
mph
1019.1mb 64f
2:49pm 2 3 mph 1019.3mb 64f
2:47pm 2 3 mph 1019.3mb 63f
2:43pm 2 3 mph 1019.3mb 62f
2:39pm 3 5 mph 1019.3mb 62f
2:37pm 3 5 mph 1019.3mb 62f
2:33pm 5 6 mph 1019.1mb 62f
2:31pm 6 7 mph 1019.1mb 62f
2:27pm 8 9 mph 1019.3mb 62f
2:25pm 8 9 mph 1019.3mb 62f
2:21pm 8 9 mph 1019.3mb 61f
2:19pm 8 10 mph 1019.3mb 61f
2:15pm 9 10 mph 1019.3mb 61f
2:11pm 7 10 mph 1019.3mb 62f
2:09pm 6 8 mph 1019.3mb 62f
2:05pm 5 8 mph 1019.3mb 62f
2:03pm 3 7 mph 1019.3mb 63f
1:59pm 3 6 mph 1019.3mb 62f
1:57pm 3 6 mph 1019.3mb 62f
1:53pm 5 6 mph 1019.3mb 62f
1:51pm 5 6 mph 1019.3mb 62f
1:47pm 2 3 mph 1019.3mb 64f
1:45pm 2 3 mph 1019.6mb 64f
1:41pm 2
mph
1019.3mb 65f
1:37pm  -  2 mph 1019.6mb 66f
1:35pm  -  2 mph 1019.6mb 66f
1:31pm  -  1 mph 1019.4mb 65f
1:29pm  -  1 mph 1019.4mb 65f
1:25pm  -  2 mph 1019.4mb 64f
1:23pm  -  2 mph 1019.4mb 63f